Time;durP1;ratioP1;P1;durP2;ratioP2;P2;SDS_P1;SDS_P2;PMS_P1;PMS_P2;Temp;Humidity;BMP_temperature;BMP_pressure;BME280_temperature;BME280_humidity;BME280_pressure;Samples;Min_cycle;Max_cycle;Signal;HPM_P1;HPM_P2
2021/07/31 00:02:23;;;;;;;;;;;17.30;99.90;;;;;;5082185;28;20199;-52
2021/07/31 00:04:50;;;;;;;;;;;17.30;99.90;;;;;;5081883;28;19908;-55
2021/07/31 00:07:16;;;;;;;;;;;17.30;99.90;;;;;;5071620;28;19937;-53
2021/07/31 00:09:42;;;;;;;;;;;17.30;99.90;;;;;;5063987;28;19951;-55
2021/07/31 00:12:07;;;;;;;;;;;17.30;99.90;;;;;;5080220;28;19940;-56
2021/07/31 00:14:33;;;;;;;;;;;17.30;99.90;;;;;;5081356;28;20324;-54
2021/07/31 00:16:58;;;;;;;;;;;17.20;99.90;;;;;;5080918;28;19912;-53
2021/07/31 00:19:24;;;;;;;;;;;17.20;99.90;;;;;;5081561;28;20540;-53
2021/07/31 00:21:49;;;;;;;;;;;17.20;99.90;;;;;;5081998;28;19934;-53
2021/07/31 00:24:15;;;;;;;;;;;17.20;99.90;;;;;;5074592;28;19959;-52
2021/07/31 00:26:40;;;;;;;;;;;17.20;99.90;;;;;;5084440;28;20377;-56
2021/07/31 00:29:06;;;;;;;;;;;17.10;99.90;;;;;;5079762;28;19935;-52
2021/07/31 00:31:31;;;;;;;;;;;17.10;99.90;;;;;;5083706;28;19912;-54
2021/07/31 00:33:57;;;;;;;;;;;17.10;99.90;;;;;;5080033;28;19916;-52
2021/07/31 00:36:24;;;;;;;;;;;17.00;99.90;;;;;;5077695;28;20367;-53
2021/07/31 00:38:49;;;;;;;;;;;17.00;99.90;;;;;;5085271;28;19915;-54
2021/07/31 00:41:15;;;;;;;;;;;17.00;99.90;;;;;;5074120;28;19908;-52
2021/07/31 00:43:40;;;;;;;;;;;16.90;99.90;;;;;;5084467;28;19998;-52
2021/07/31 00:46:06;;;;;;;;;;;16.90;99.90;;;;;;5078873;28;20706;-53
2021/07/31 00:48:32;;;;;;;;;;;16.90;99.90;;;;;;5083355;28;20554;-55
2021/07/31 00:50:57;;;;;;;;;;;16.80;99.90;;;;;;5079602;28;20294;-54
2021/07/31 00:53:23;;;;;;;;;;;16.80;99.90;;;;;;5077325;28;19912;-54
2021/07/31 00:55:49;;;;;;;;;;;16.80;99.90;;;;;;5067412;28;19912;-53
2021/07/31 00:58:16;;;;;;;;;;;16.80;99.90;;;;;;5061091;28;19912;-52
2021/07/31 01:00:41;;;;;;;;;;;16.70;99.90;;;;;;5057140;28;19919;-54
2021/07/31 01:03:06;;;;;;;;;;;16.70;99.90;;;;;;5081950;28;20358;-54
2021/07/31 01:05:32;;;;;;;;;;;16.70;99.90;;;;;;5080473;28;19912;-52
2021/07/31 01:07:58;;;;;;;;;;;16.70;99.90;;;;;;5079260;28;20452;-55
2021/07/31 01:10:24;;;;;;;;;;;16.70;99.90;;;;;;5083258;28;20003;-56
2021/07/31 01:12:50;;;;;;;;;;;16.70;99.90;;;;;;5080081;28;19995;-52
2021/07/31 01:15:15;;;;;;;;;;;16.60;99.90;;;;;;5080563;28;19912;-54
2021/07/31 01:17:41;;;;;;;;;;;16.60;99.90;;;;;;5081144;28;19908;-56
2021/07/31 01:20:07;;;;;;;;;;;16.70;99.90;;;;;;5078911;28;19952;-54
2021/07/31 01:22:32;;;;;;;;;;;16.60;99.90;;;;;;5081083;28;19969;-55
2021/07/31 01:25:00;;;;;;;;;;;16.70;99.90;;;;;;5079316;28;19915;-54
2021/07/31 01:27:25;;;;;;;;;;;16.60;99.90;;;;;;5080463;28;19935;-52
2021/07/31 01:29:51;;;;;;;;;;;16.60;99.90;;;;;;5080280;28;20526;-56
2021/07/31 01:32:16;;;;;;;;;;;16.60;99.90;;;;;;5078715;28;19943;-51
2021/07/31 01:34:42;;;;;;;;;;;16.60;99.90;;;;;;5080786;28;19908;-52
2021/07/31 01:37:07;;;;;;;;;;;16.60;99.90;;;;;;5078997;28;19991;-52
2021/07/31 01:39:33;;;;;;;;;;;16.50;99.90;;;;;;5081018;28;20392;-52
2021/07/31 01:41:59;;;;;;;;;;;16.50;99.90;;;;;;5080132;28;19937;-55
2021/07/31 01:44:25;;;;;;;;;;;16.50;99.90;;;;;;5080984;28;19912;-54
2021/07/31 01:46:50;;;;;;;;;;;16.40;99.90;;;;;;5080360;28;20301;-53
2021/07/31 01:49:15;;;;;;;;;;;16.30;99.90;;;;;;5070594;28;19915;-52
2021/07/31 01:51:41;;;;;;;;;;;16.30;99.90;;;;;;5073925;28;20362;-52
2021/07/31 01:54:06;;;;;;;;;;;16.30;99.90;;;;;;5078887;28;19919;-53
2021/07/31 01:56:32;;;;;;;;;;;16.20;99.90;;;;;;5080472;28;19912;-57
2021/07/31 01:58:57;;;;;;;;;;;16.20;99.90;;;;;;5079954;28;19908;-55
2021/07/31 02:01:23;;;;;;;;;;;16.20;99.90;;;;;;5080872;28;20058;-52
2021/07/31 02:03:48;;;;;;;;;;;16.10;99.90;;;;;;5080695;28;19908;-53
2021/07/31 02:06:14;;;;;;;;;;;16.20;99.90;;;;;;5079140;28;19908;-56
2021/07/31 02:08:39;;;;;;;;;;;16.10;99.90;;;;;;5079975;28;20374;-53
2021/07/31 02:11:05;;;;;;;;;;;16.10;99.90;;;;;;5080503;28;19908;-52
2021/07/31 02:13:30;;;;;;;;;;;16.10;99.90;;;;;;5080678;28;19927;-53
2021/07/31 02:15:56;;;;;;;;;;;16.10;99.90;;;;;;5079071;28;19912;-54
2021/07/31 02:18:21;;;;;;;;;;;16.00;99.90;;;;;;5079097;28;19983;-53
2021/07/31 02:20:47;;;;;;;;;;;16.00;99.90;;;;;;5080653;28;20362;-52
2021/07/31 02:23:12;;;;;;;;;;;15.90;99.90;;;;;;5078790;28;20330;-53
2021/07/31 02:25:39;;;;;;;;;;;15.90;99.90;;;;;;5073737;28;19935;-53
2021/07/31 02:28:04;;;;;;;;;;;15.90;99.90;;;;;;5079746;28;19915;-52
2021/07/31 02:30:30;;;;;;;;;;;15.80;99.90;;;;;;5080419;28;19908;-52
2021/07/31 02:32:55;;;;;;;;;;;15.80;99.90;;;;;;5079473;28;19909;-54
2021/07/31 02:35:21;;;;;;;;;;;15.80;99.90;;;;;;5074686;28;19916;-56
2021/07/31 02:37:46;;;;;;;;;;;15.80;99.90;;;;;;5107910;22;19924;-53
2021/07/31 02:40:12;;;;;;;;;;;15.80;99.90;;;;;;5087857;28;19908;-52
2021/07/31 02:42:37;;;;;;;;;;;15.80;99.90;;;;;;5088203;28;19936;-52
2021/07/31 02:45:03;;;;;;;;;;;15.70;99.90;;;;;;5087803;28;20007;-55
2021/07/31 02:47:29;;;;;;;;;;;15.70;99.90;;;;;;5077453;28;20371;-52
2021/07/31 02:49:55;;;;;;;;;;;15.70;99.90;;;;;;5085266;28;19908;-56
2021/07/31 02:52:20;;;;;;;;;;;15.60;99.90;;;;;;5088568;28;19912;-56
2021/07/31 02:54:46;;;;;;;;;;;15.60;99.90;;;;;;5087757;28;19912;-52
2021/07/31 02:57:11;;;;;;;;;;;15.50;99.90;;;;;;5088168;28;19947;-52
2021/07/31 02:59:37;;;;;;;;;;;15.40;99.90;;;;;;5091518;28;19961;-52
2021/07/31 03:02:03;;;;;;;;;;;15.40;99.90;;;;;;5091283;28;19912;-52
2021/07/31 03:04:28;;;;;;;;;;;15.40;99.90;;;;;;5091540;28;20412;-54
2021/07/31 03:06:54;;;;;;;;;;;15.40;99.90;;;;;;5091992;28;19952;-53
2021/07/31 03:09:19;;;;;;;;;;;15.40;99.90;;;;;;5089396;28;19912;-55
2021/07/31 03:11:45;;;;;;;;;;;15.40;99.90;;;;;;5091540;28;19956;-54
2021/07/31 03:14:10;;;;;;;;;;;15.30;99.90;;;;;;5091551;28;20451;-58
2021/07/31 03:16:35;;;;;;;;;;;15.30;99.90;;;;;;5090910;28;20443;-55
2021/07/31 03:19:01;;;;;;;;;;;15.30;99.90;;;;;;5091169;28;19943;-50
2021/07/31 03:21:26;;;;;;;;;;;15.40;99.90;;;;;;5091221;28;19915;-53
2021/07/31 03:23:52;;;;;;;;;;;15.30;99.90;;;;;;5090074;28;19905;-55
2021/07/31 03:26:17;;;;;;;;;;;15.30;99.90;;;;;;5091174;28;20008;-52
2021/07/31 03:28:43;;;;;;;;;;;15.20;99.90;;;;;;5089647;28;20399;-51
2021/07/31 03:31:09;;;;;;;;;;;15.20;99.90;;;;;;5085812;28;19940;-54
2021/07/31 03:33:34;;;;;;;;;;;15.20;99.90;;;;;;5091026;28;20386;-50
2021/07/31 03:35:59;;;;;;;;;;;15.20;99.90;;;;;;5090691;28;20088;-54
2021/07/31 03:38:25;;;;;;;;;;;15.10;99.90;;;;;;5090985;28;19995;-49
2021/07/31 03:40:52;;;;;;;;;;;15.10;99.90;;;;;;5091224;28;19908;-54
2021/07/31 03:43:17;;;;;;;;;;;15.10;99.90;;;;;;5090930;28;19915;-54
2021/07/31 03:45:43;;;;;;;;;;;15.00;99.90;;;;;;5089207;28;19911;-54
2021/07/31 03:48:08;;;;;;;;;;;15.00;99.90;;;;;;5085135;28;20434;-54
2021/07/31 03:50:37;;;;;;;;;;;15.00;99.90;;;;;;5090521;28;19918;-52
2021/07/31 03:53:03;;;;;;;;;;;15.00;99.90;;;;;;5090277;28;19914;-52
2021/07/31 03:55:29;;;;;;;;;;;15.00;99.90;;;;;;5090093;28;19912;-52
2021/07/31 03:57:54;;;;;;;;;;;15.10;99.90;;;;;;5090412;28;19908;-55
2021/07/31 04:00:20;;;;;;;;;;;15.10;99.90;;;;;;5090420;28;19908;-51
2021/07/31 04:02:45;;;;;;;;;;;15.10;99.90;;;;;;5090320;28;19912;-55
2021/07/31 04:05:11;;;;;;;;;;;15.10;99.90;;;;;;5090027;28;19908;-49
2021/07/31 04:07:36;;;;;;;;;;;15.10;99.90;;;;;;5090481;28;19908;-49
2021/07/31 04:10:02;;;;;;;;;;;15.10;99.90;;;;;;5070177;28;19908;-51
2021/07/31 04:12:27;;;;;;;;;;;15.10;99.90;;;;;;5072475;28;19987;-49
2021/07/31 04:14:53;;;;;;;;;;;15.20;99.90;;;;;;5089716;28;19908;-53
2021/07/31 04:17:18;;;;;;;;;;;15.20;99.90;;;;;;5090279;28;20370;-54
2021/07/31 04:19:44;;;;;;;;;;;15.20;99.90;;;;;;5089760;28;19991;-48
2021/07/31 04:22:09;;;;;;;;;;;15.20;99.90;;;;;;5089993;28;19916;-53
2021/07/31 04:24:36;;;;;;;;;;;15.20;99.90;;;;;;5089607;28;19908;-51
2021/07/31 04:27:02;;;;;;;;;;;15.20;99.90;;;;;;5089868;28;19908;-51
2021/07/31 04:29:27;;;;;;;;;;;15.20;99.90;;;;;;5089623;28;19918;-53
2021/07/31 04:31:53;;;;;;;;;;;15.30;99.90;;;;;;5089885;28;19908;-54
2021/07/31 04:34:18;;;;;;;;;;;15.30;99.90;;;;;;5089704;28;20456;-50
2021/07/31 04:36:44;;;;;;;;;;;15.30;99.90;;;;;;5088915;28;19923;-52
2021/07/31 04:39:09;;;;;;;;;;;15.40;99.90;;;;;;5088485;28;20449;-52
2021/07/31 04:41:37;;;;;;;;;;;15.40;99.90;;;;;;5089905;28;20015;-55
2021/07/31 04:44:02;;;;;;;;;;;15.40;99.90;;;;;;5089796;28;19916;-53
2021/07/31 04:46:28;;;;;;;;;;;15.40;99.90;;;;;;5089622;28;20266;-52
2021/07/31 04:48:53;;;;;;;;;;;15.40;99.90;;;;;;5089251;28;19999;-54
2021/07/31 04:51:19;;;;;;;;;;;15.40;99.90;;;;;;5089526;28;19909;-56
2021/07/31 04:53:44;;;;;;;;;;;15.40;99.90;;;;;;5089641;28;20412;-52
2021/07/31 04:56:09;;;;;;;;;;;15.40;99.90;;;;;;5089074;28;19927;-52
2021/07/31 04:58:35;;;;;;;;;;;15.50;99.90;;;;;;5089002;28;19970;-52
2021/07/31 05:01:00;;;;;;;;;;;15.50;99.90;;;;;;5085914;28;19957;-52
2021/07/31 05:03:27;;;;;;;;;;;15.50;99.90;;;;;;5089354;28;19908;-50
2021/07/31 05:05:52;;;;;;;;;;;15.50;99.90;;;;;;5070130;28;19912;-54
2021/07/31 05:08:18;;;;;;;;;;;15.50;99.90;;;;;;5089102;28;19957;-54
2021/07/31 05:10:44;;;;;;;;;;;15.60;99.90;;;;;;5069225;28;19908;-56
2021/07/31 05:13:10;;;;;;;;;;;15.60;99.90;;;;;;5089177;28;19916;-57
2021/07/31 05:15:37;;;;;;;;;;;15.70;99.90;;;;;;5089176;28;19942;-53
2021/07/31 05:18:02;;;;;;;;;;;15.70;99.90;;;;;;5088862;28;19947;-56
2021/07/31 05:20:28;;;;;;;;;;;15.70;99.90;;;;;;5088359;28;19951;-54
2021/07/31 05:22:53;;;;;;;;;;;15.70;99.90;;;;;;5088873;28;19912;-53
2021/07/31 05:25:19;;;;;;;;;;;15.70;99.90;;;;;;5088962;28;19911;-56
2021/07/31 05:27:44;;;;;;;;;;;15.70;99.90;;;;;;5088656;28;19908;-50
2021/07/31 05:30:10;;;;;;;;;;;15.70;99.90;;;;;;5088772;28;19916;-58
2021/07/31 05:32:36;;;;;;;;;;;15.70;99.90;;;;;;5089123;28;19911;-52
2021/07/31 05:35:02;;;;;;;;;;;15.70;99.90;;;;;;5088549;28;19908;-52
2021/07/31 05:37:27;;;;;;;;;;;15.80;99.90;;;;;;5088261;28;19916;-55
2021/07/31 05:39:53;;;;;;;;;;;15.80;99.90;;;;;;5088292;28;19919;-58
2021/07/31 05:42:18;;;;;;;;;;;15.80;99.90;;;;;;5088836;28;20370;-57
2021/07/31 05:44:44;;;;;;;;;;;15.80;99.90;;;;;;5088082;28;20530;-56
2021/07/31 05:47:09;;;;;;;;;;;15.80;99.90;;;;;;5088619;28;19938;-55
2021/07/31 05:49:35;;;;;;;;;;;15.80;99.90;;;;;;5088636;28;19912;-56
2021/07/31 05:52:00;;;;;;;;;;;15.90;99.90;;;;;;5088444;28;19914;-55
2021/07/31 05:54:25;;;;;;;;;;;15.90;99.90;;;;;;5088685;28;19920;-58
2021/07/31 05:56:51;;;;;;;;;;;15.90;99.90;;;;;;5088318;28;19916;-58
2021/07/31 05:59:17;;;;;;;;;;;15.90;99.90;;;;;;5088557;28;19908;-59
2021/07/31 06:01:42;;;;;;;;;;;15.90;99.90;;;;;;5088889;28;19943;-58
2021/07/31 06:04:08;;;;;;;;;;;16.00;99.90;;;;;;5088387;28;19908;-58
2021/07/31 06:06:33;;;;;;;;;;;16.00;99.90;;;;;;5088476;28;19914;-56
2021/07/31 06:08:59;;;;;;;;;;;16.00;99.90;;;;;;5086804;28;20298;-56
2021/07/31 06:11:25;;;;;;;;;;;16.10;99.90;;;;;;5088280;28;19912;-57
2021/07/31 06:13:51;;;;;;;;;;;16.10;99.90;;;;;;5088576;28;19912;-54
2021/07/31 06:16:16;;;;;;;;;;;16.20;99.90;;;;;;5061847;28;20463;-55
2021/07/31 06:18:42;;;;;;;;;;;16.20;99.90;;;;;;5087293;28;19912;-58
2021/07/31 06:21:14;;;;;;;;;;;16.30;99.90;;;;;;5084132;28;20354;-56
2021/07/31 06:23:40;;;;;;;;;;;16.30;99.90;;;;;;5086969;28;20287;-58
2021/07/31 06:26:07;;;;;;;;;;;16.30;99.90;;;;;;5083715;28;20030;-59
2021/07/31 06:28:33;;;;;;;;;;;16.40;99.90;;;;;;5088453;28;20010;-61
2021/07/31 06:30:58;;;;;;;;;;;16.40;99.90;;;;;;5088367;28;20046;-54
2021/07/31 06:33:24;;;;;;;;;;;16.30;99.90;;;;;;5091750;28;20420;-59
2021/07/31 06:35:49;;;;;;;;;;;16.30;99.90;;;;;;5091894;28;19919;-54
2021/07/31 06:38:15;;;;;;;;;;;16.30;99.90;;;;;;5092055;28;20311;-55
2021/07/31 06:40:43;;;;;;;;;;;16.30;99.90;;;;;;5092270;28;19991;-57
2021/07/31 06:43:09;;;;;;;;;;;16.30;99.90;;;;;;5091775;28;19908;-56
2021/07/31 06:45:34;;;;;;;;;;;16.30;99.90;;;;;;5091875;28;19998;-57
2021/07/31 06:48:00;;;;;;;;;;;16.40;99.90;;;;;;5073916;28;19908;-58
2021/07/31 06:50:25;;;;;;;;;;;16.30;99.90;;;;;;5065328;28;19923;-54
2021/07/31 06:52:51;;;;;;;;;;;16.30;99.90;;;;;;5091814;28;19916;-55
2021/07/31 06:55:16;;;;;;;;;;;16.40;99.90;;;;;;5091337;28;20518;-58
2021/07/31 06:57:42;;;;;;;;;;;16.40;99.90;;;;;;5091880;28;19995;-54
2021/07/31 07:00:08;;;;;;;;;;;16.40;99.90;;;;;;5091395;28;20332;-58
2021/07/31 07:02:33;;;;;;;;;;;16.40;99.90;;;;;;5087253;28;20383;-58
2021/07/31 07:04:59;;;;;;;;;;;16.50;99.90;;;;;;5074909;28;19909;-57
2021/07/31 07:07:24;;;;;;;;;;;16.50;99.90;;;;;;5077019;28;20128;-56
2021/07/31 07:09:50;;;;;;;;;;;16.70;99.90;;;;;;5076419;28;20417;-54
2021/07/31 07:12:15;;;;;;;;;;;16.80;99.90;;;;;;5084213;28;19912;-58
2021/07/31 07:14:40;;;;;;;;;;;16.80;99.90;;;;;;5089677;28;20283;-57
2021/07/31 07:17:06;;;;;;;;;;;16.80;99.90;;;;;;5083682;28;19966;-54
2021/07/31 07:19:32;;;;;;;;;;;16.90;99.90;;;;;;5090125;28;19908;-58
2021/07/31 07:21:58;;;;;;;;;;;16.90;99.90;;;;;;5091170;28;19908;-56
2021/07/31 07:24:23;;;;;;;;;;;17.00;99.90;;;;;;5090882;28;19909;-58
2021/07/31 07:26:48;;;;;;;;;;;17.00;99.90;;;;;;5090924;28;19947;-57
2021/07/31 07:29:15;;;;;;;;;;;17.10;99.90;;;;;;5090424;28;20285;-54
2021/07/31 07:31:40;;;;;;;;;;;17.20;99.90;;;;;;5090756;28;20282;-55
2021/07/31 07:34:06;;;;;;;;;;;17.40;99.90;;;;;;5090935;28;19916;-56
2021/07/31 07:36:31;;;;;;;;;;;17.50;99.90;;;;;;5090558;28;19916;-55
2021/07/31 07:38:56;;;;;;;;;;;17.60;99.90;;;;;;5072862;28;19912;-52
2021/07/31 07:41:22;;;;;;;;;;;17.60;99.90;;;;;;5090357;28;19915;-57
2021/07/31 07:43:48;;;;;;;;;;;17.50;99.90;;;;;;5089996;28;19908;-53
2021/07/31 07:46:14;;;;;;;;;;;17.50;99.90;;;;;;5072420;28;19915;-57
2021/07/31 07:48:40;;;;;;;;;;;17.60;99.90;;;;;;5090859;28;19956;-51
2021/07/31 07:51:06;;;;;;;;;;;17.70;99.90;;;;;;5090530;28;19912;-57
2021/07/31 07:53:31;;;;;;;;;;;17.90;99.90;;;;;;5090529;28;19995;-57
2021/07/31 07:55:57;;;;;;;;;;;18.00;99.90;;;;;;5090017;28;20003;-53
2021/07/31 07:58:22;;;;;;;;;;;18.10;99.90;;;;;;5090311;28;19908;-59
2021/07/31 08:00:48;;;;;;;;;;;18.10;99.90;;;;;;5090111;28;19908;-53
2021/07/31 08:03:14;;;;;;;;;;;18.10;99.90;;;;;;5090037;28;19928;-55
2021/07/31 08:05:39;;;;;;;;;;;18.20;99.90;;;;;;5090127;28;20389;-55
2021/07/31 08:08:05;;;;;;;;;;;18.20;99.90;;;;;;5063531;28;19916;-54
2021/07/31 08:10:31;;;;;;;;;;;18.30;99.90;;;;;;5088431;28;19908;-56
2021/07/31 08:12:56;;;;;;;;;;;18.30;99.90;;;;;;5089874;28;19993;-57
2021/07/31 08:15:22;;;;;;;;;;;18.30;99.90;;;;;;5090012;28;19912;-53
2021/07/31 08:17:47;;;;;;;;;;;18.20;99.90;;;;;;5090106;28;19908;-54
2021/07/31 08:20:13;;;;;;;;;;;18.20;99.90;;;;;;5089957;28;19972;-51
2021/07/31 08:22:39;;;;;;;;;;;18.20;99.90;;;;;;5090078;28;19962;-54
2021/07/31 08:25:04;;;;;;;;;;;18.20;99.90;;;;;;5089615;28;20314;-52
2021/07/31 08:27:30;;;;;;;;;;;18.10;99.90;;;;;;5089486;28;19919;-53
2021/07/31 08:29:55;;;;;;;;;;;18.00;99.90;;;;;;5089648;28;19958;-53
2021/07/31 08:32:21;;;;;;;;;;;18.00;99.90;;;;;;5089674;28;20285;-58
2021/07/31 08:34:46;;;;;;;;;;;17.90;99.90;;;;;;5089436;28;19955;-53
2021/07/31 08:37:12;;;;;;;;;;;17.90;99.90;;;;;;5106915;22;20065;-55
2021/07/31 08:39:37;;;;;;;;;;;17.90;99.90;;;;;;5089560;28;20326;-53
2021/07/31 08:42:06;;;;;;;;;;;17.80;99.90;;;;;;5089060;28;20698;-52
2021/07/31 08:44:34;;;;;;;;;;;17.80;99.90;;;;;;5089145;28;19908;-51
2021/07/31 08:47:01;;;;;;;;;;;17.80;99.90;;;;;;5086594;28;20406;-50
2021/07/31 08:49:27;;;;;;;;;;;17.90;99.90;;;;;;5081495;28;19908;-54
2021/07/31 08:51:52;;;;;;;;;;;17.90;99.90;;;;;;5078963;28;20266;-54
2021/07/31 08:54:18;;;;;;;;;;;17.90;99.90;;;;;;5062979;28;19953;-52
2021/07/31 08:56:43;;;;;;;;;;;18.00;99.90;;;;;;5079760;28;19958;-52
2021/07/31 08:59:09;;;;;;;;;;;18.00;99.90;;;;;;5080329;28;19958;-54
2021/07/31 09:01:35;;;;;;;;;;;17.90;99.90;;;;;;5080870;28;19912;-55
2021/07/31 09:04:30;;;;;;;;;;;18.00;99.90;;;;;;5082115;28;20309;-55
2021/07/31 09:06:55;;;;;;;;;;;18.10;99.90;;;;;;5059752;28;19918;-54
2021/07/31 09:09:25;;;;;;;;;;;18.10;99.90;;;;;;5077541;28;19908;-54
2021/07/31 09:11:56;;;;;;;;;;;18.10;99.90;;;;;;5085198;28;19912;-56
2021/07/31 09:14:22;;;;;;;;;;;18.10;99.90;;;;;;5077207;28;19916;-52
2021/07/31 09:16:48;;;;;;;;;;;18.20;99.90;;;;;;5077175;28;19912;-55
2021/07/31 09:19:14;;;;;;;;;;;18.20;99.90;;;;;;5083202;28;20554;-57
2021/07/31 09:21:42;;;;;;;;;;;18.20;99.90;;;;;;5058808;28;19908;-57
2021/07/31 09:24:15;;;;;;;;;;;18.10;99.90;;;;;;5083797;28;19985;-56
2021/07/31 09:26:50;;;;;;;;;;;18.10;99.90;;;;;;5076507;28;20581;-54
2021/07/31 09:29:32;;;;;;;;;;;18.20;99.90;;;;;;5055402;28;20256;-56
2021/07/31 09:32:01;;;;;;;;;;;18.20;99.90;;;;;;5062421;28;19995;-55
2021/07/31 09:34:37;;;;;;;;;;;18.20;99.90;;;;;;5073658;28;20010;-54
2021/07/31 09:37:56;;;;;;;4.00;2.20;;;18.30;99.90;;;;;;5109757;27;20372;-79
2021/07/31 09:40:30;;;;;;;3.90;2.28;;;18.40;99.90;;;;;;5111766;28;20597;-79
2021/07/31 09:42:56;;;;;;;5.07;2.30;;;18.50;99.90;;;;;;5094891;28;20023;-80
2021/07/31 09:45:32;;;;;;;4.00;2.50;;;18.50;99.90;;;;;;5100152;28;20547;-79
2021/07/31 09:48:06;;;;;;;4.10;2.10;;;18.70;99.90;;;;;;5112254;28;20506;-78
2021/07/31 09:50:50;;;;;;;3.85;2.40;;;18.70;99.90;;;;;;5105061;28;20088;-79
2021/07/31 09:53:25;;;;;;;3.60;2.45;;;18.70;99.90;;;;;;5107411;28;20019;-80
2021/07/31 09:55:55;;;;;;;3.70;2.15;;;18.70;99.90;;;;;;5104159;28;20459;-81
2021/07/31 09:58:21;;;;;;;4.38;2.45;;;18.80;99.90;;;;;;5104436;28;20107;-79
2021/07/31 10:00:53;;;;;;;3.60;1.80;;;19.00;99.90;;;;;;5106006;28;20055;-80
2021/07/31 10:03:19;;;;;;;4.43;2.33;;;19.20;99.90;;;;;;5108661;28;20037;-80
2021/07/31 10:05:45;;;;;;;3.63;2.45;;;19.20;99.90;;;;;;5118097;28;20023;-81
2021/07/31 10:08:11;;;;;;;2.92;2.10;;;19.20;99.90;;;;;;5109016;28;20019;-81
2021/07/31 10:10:37;;;;;;;2.72;1.92;;;19.10;99.90;;;;;;5115741;28;20088;-80
2021/07/31 10:13:03;;;;;;;5.75;2.30;;;19.00;99.90;;;;;;5114965;28;20023;-80
2021/07/31 10:15:30;;;;;;;4.07;2.15;;;19.00;99.90;;;;;;5116273;28;20019;-79
2021/07/31 10:17:56;;;;;;;5.05;2.25;;;18.80;99.90;;;;;;5115874;28;20073;-79
2021/07/31 10:20:26;;;;;;;2.45;2.28;;;18.90;99.90;;;;;;5107422;28;20015;-82
2021/07/31 10:22:52;;;;;;;3.08;2.00;;;19.00;99.90;;;;;;5118472;28;20015;-79
2021/07/31 10:25:19;;;;;;;3.70;1.65;;;19.20;99.90;;;;;;5106790;28;20048;-79
2021/07/31 10:27:46;;;;;;;3.78;2.13;;;19.20;99.90;;;;;;5114882;28;20585;-79
2021/07/31 10:30:23;;;;;;;4.13;2.20;;;19.30;99.90;;;;;;5110631;28;20020;-80
2021/07/31 10:32:49;;;;;;;4.50;2.22;;;19.40;99.90;;;;;;5116642;28;20023;-79
2021/07/31 10:35:33;;;;;;;5.88;2.17;;;19.50;99.90;;;;;;5111486;28;20025;-80
2021/07/31 10:38:01;;;;;;;4.20;2.10;;;19.50;99.90;;;;;;5117005;28;20088;-81
2021/07/31 10:40:26;;;;;;;5.10;2.33;;;19.60;99.90;;;;;;5105874;28;20019;-80
2021/07/31 10:42:51;;;;;;;2.65;2.25;;;19.60;99.90;;;;;;5118782;28;20015;-80
2021/07/31 10:45:23;;;;;;;3.17;1.95;;;19.60;99.90;;;;;;5115532;28;20020;-80
2021/07/31 10:47:55;;;;;;;2.05;1.80;;;19.50;99.90;;;;;;5112721;28;20413;-80
2021/07/31 10:50:25;;;;;;;6.18;2.20;;;19.40;99.90;;;;;;5100491;28;20102;-79
2021/07/31 10:53:06;;;;;;;4.72;1.95;;;19.30;99.90;;;;;;5092028;28;20024;-80
2021/07/31 10:55:37;;;;;;;4.10;2.22;;;19.30;99.90;;;;;;5100986;28;20027;-80
2021/07/31 10:58:04;;;;;;;4.50;1.92;;;19.40;99.90;;;;;;5095511;28;20021;-81
2021/07/31 11:00:50;;;;;;;2.00;1.90;;;19.50;99.90;;;;;;5100422;28;20021;-81
2021/07/31 11:03:22;;;;;;;3.47;1.67;;;19.60;99.90;;;;;;5084745;28;20529;-79
2021/07/31 11:06:00;;;;;;;1.90;1.73;;;19.50;99.90;;;;;;5095940;28;20457;-80
2021/07/31 11:08:27;;;;;;;2.78;1.83;;;19.60;99.90;;;;;;5102944;28;20652;-81
2021/07/31 11:10:55;;;;;;;5.85;2.13;;;19.60;99.90;;;;;;5105555;28;20518;-80
2021/07/31 11:13:20;;;;;;;2.85;1.70;;;19.80;99.90;;;;;;5105178;28;20024;-79
2021/07/31 11:16:09;;;;;;;3.05;1.90;;;19.80;99.90;;;;;;5097358;28;20024;-80
2021/07/31 11:18:42;;;;;;;2.45;1.70;;;19.90;99.90;;;;;;5094229;28;20058;-80
2021/07/31 11:21:15;;;;;;;3.13;1.67;;;20.00;99.90;;;;;;5103756;28;20531;-80
2021/07/31 11:23:47;;;;;;;3.90;1.50;;;20.10;99.90;;;;;;5100492;28;20070;-80
2021/07/31 11:26:29;;;;;;;3.72;1.90;;;20.10;99.90;;;;;;5100579;28;20364;-79
2021/07/31 11:28:55;;;;;;;2.90;1.73;;;20.00;99.90;;;;;;5106268;28;20034;-79
2021/07/31 11:31:20;;;;;;;4.35;1.85;;;20.10;99.90;;;;;;5094760;28;20025;-81
2021/07/31 11:34:05;;;;;;;5.03;1.83;;;20.10;99.90;;;;;;5101655;28;20020;-81
2021/07/31 11:36:32;;;;;;;1.85;1.58;;;20.20;99.90;;;;;;5095803;28;20031;-80
2021/07/31 11:38:59;;;;;;;1.88;1.30;;;20.30;99.90;;;;;;5101870;28;20487;-80
2021/07/31 11:41:25;;;;;;;1.67;1.30;;;20.30;99.90;;;;;;5105422;28;20023;-81
2021/07/31 11:43:55;;;;;;;3.60;2.47;;;20.10;99.90;;;;;;5093054;28;20042;-82
2021/07/31 11:46:34;;;;;;;3.25;1.63;;;20.00;99.90;;;;;;5106755;28;20020;-80
2021/07/31 11:49:04;;;;;;;5.03;1.92;;;19.90;99.90;;;;;;5099911;28;20052;-80
2021/07/31 11:51:30;;;;;;;2.55;1.08;;;19.80;99.90;;;;;;5102112;28;20097;-81
2021/07/31 11:54:03;;;;;;;2.78;2.35;;;19.70;99.90;;;;;;5101633;28;20071;-80
2021/07/31 11:56:30;;;;;;;2.70;1.40;;;19.60;99.90;;;;;;5098343;28;20016;-79
2021/07/31 11:58:56;;;;;;;2.70;1.73;;;19.40;99.90;;;;;;5099480;28;20016;-80
2021/07/31 12:01:22;;;;;;;3.80;1.23;;;19.20;99.90;;;;;;5098582;28;20053;-80
2021/07/31 12:03:55;;;;;;;1.10;1.02;;;19.10;99.90;;;;;;5103286;28;20111;-81
2021/07/31 12:06:39;;;;;;;3.70;1.67;;;18.90;99.90;;;;;;5102601;28;20020;-80
2021/07/31 12:09:22;;;;;;;2.35;1.60;;;18.70;99.90;;;;;;5107919;28;20035;-79
2021/07/31 12:11:49;;;;;;;1.85;1.20;;;18.60;99.90;;;;;;5108086;28;20084;-80
2021/07/31 12:14:33;;;;;;;2.85;1.60;;;18.50;99.90;;;;;;5094911;28;20035;-81
2021/07/31 12:17:17;;;;;;;1.42;1.15;;;18.40;99.90;;;;;;5092881;28;20024;-80
2021/07/31 12:19:46;;;;;;;1.88;1.20;;;18.40;99.90;;;;;;5101701;28;20054;-81
2021/07/31 12:22:17;;;;;;;1.55;1.35;;;18.40;99.90;;;;;;5103411;28;20667;-81
2021/07/31 12:24:44;;;;;;;2.67;1.40;;;18.30;99.90;;;;;;5101578;28;20752;-80
2021/07/31 12:27:09;;;;;;;1.67;1.58;;;18.30;99.90;;;;;;5104578;28;20032;-82
2021/07/31 12:29:37;;;;;;;3.83;1.45;;;18.20;99.90;;;;;;5110342;28;20038;-80
2021/07/31 12:32:27;;;;;;;2.58;2.13;;;18.10;99.90;;;;;;5099036;28;20024;-81
2021/07/31 12:34:54;;;;;;;2.30;1.88;;;18.00;99.90;;;;;;5093203;28;20024;-82
2021/07/31 12:37:21;;;;;;;2.95;1.70;;;17.90;99.90;;;;;;5106660;28;20020;-80
2021/07/31 12:39:49;;;;;;;2.17;1.40;;;17.80;99.90;;;;;;5101688;28;20083;-82
2021/07/31 12:42:15;;;;;;;2.42;1.85;;;17.70;99.90;;;;;;5086894;28;20016;-83
2021/07/31 12:44:41;;;;;;;3.15;1.80;;;17.60;99.90;;;;;;5094238;28;20027;-81
2021/07/31 12:47:09;;;;;;;2.25;1.85;;;17.60;99.90;;;;;;5108580;28;20028;-82
2021/07/31 12:49:36;;;;;;;5.25;2.20;;;17.40;99.90;;;;;;5096554;28;20021;-81
2021/07/31 12:52:02;;;;;;;5.15;1.60;;;17.40;99.90;;;;;;5093017;28;20031;-82
2021/07/31 12:54:28;;;;;;;6.25;2.00;;;17.30;99.90;;;;;;5093395;28;20115;-82
2021/07/31 12:56:53;;;;;;;4.75;2.20;;;17.20;99.90;;;;;;5097726;28;20031;-82
2021/07/31 12:59:19;;;;;;;4.55;2.22;;;17.20;99.90;;;;;;5095796;28;20017;-83
2021/07/31 13:01:45;;;;;;;6.03;2.75;;;17.20;99.90;;;;;;5097616;28;20087;-83
2021/07/31 13:04:10;;;;;;;4.07;2.17;;;17.20;99.90;;;;;;5104098;28;20024;-84
2021/07/31 13:06:36;;;;;;;2.88;2.15;;;17.20;99.90;;;;;;5100826;28;20020;-83
2021/07/31 13:09:02;;;;;;;4.97;2.30;;;17.10;99.90;;;;;;5102549;28;21233;-83
2021/07/31 13:11:28;;;;;;;2.80;2.03;;;17.10;99.90;;;;;;5099988;28;20019;-81
2021/07/31 13:13:53;;;;;;;6.43;2.40;;;17.10;99.90;;;;;;5104856;28;20027;-83
2021/07/31 13:16:19;;;;;;;5.30;2.33;;;17.10;99.90;;;;;;5099872;28;20069;-83
2021/07/31 13:18:44;;;;;;;3.10;2.20;;;17.00;99.90;;;;;;5098610;28;20510;-82
2021/07/31 13:21:11;;;;;;;5.95;3.10;;;17.00;99.90;;;;;;5103263;28;20062;-82
2021/07/31 13:23:37;;;;;;;3.05;2.40;;;17.00;99.90;;;;;;5106651;28;20431;-81
2021/07/31 13:26:02;;;;;;;5.65;2.80;;;17.00;99.90;;;;;;5105390;28;20428;-82
2021/07/31 13:28:28;;;;;;;4.40;2.30;;;16.90;99.90;;;;;;5099838;28;20153;-81
2021/07/31 13:30:54;;;;;;;4.05;2.70;;;16.90;99.90;;;;;;5101310;28;20411;-82
2021/07/31 13:33:21;;;;;;;6.20;2.58;;;16.90;99.90;;;;;;5094696;28;20095;-82
2021/07/31 13:35:48;;;;;;;4.60;2.15;;;16.90;99.90;;;;;;5105874;28;20027;-84
2021/07/31 13:38:16;;;;;;;4.55;2.42;;;16.90;99.90;;;;;;5095007;28;20005;-82
2021/07/31 13:40:54;;;;;;;3.33;1.65;;;16.80;99.90;;;;;;5103848;28;20094;-80
2021/07/31 13:43:20;;;;;;;3.42;2.22;;;16.80;99.90;;;;;;5090435;28;20073;-82
2021/07/31 13:45:49;;;;;;;1.88;1.52;;;16.80;99.90;;;;;;5105827;28;20394;-81
2021/07/31 13:48:15;;;;;;;3.25;1.67;;;16.70;99.90;;;;;;5096221;28;20027;-82